sensor_id;sensor_type;location;lat;lon;timestamp;P1;durP1;ratioP1;P2;durP2;ratioP2
11211;SDS011;5663;50.864;12.096;2023-01-16T00:00:41;7.00;;;1.40;;
11211;SDS011;5663;50.864;12.096;2023-01-16T00:03:10;4.77;;;1.50;;
11211;SDS011;5663;50.864;12.096;2023-01-16T00:05:37;2.13;;;1.27;;
11211;SDS011;5663;50.864;12.096;2023-01-16T00:08:05;7.10;;;1.40;;
11211;SDS011;5663;50.864;12.096;2023-01-16T00:10:33;4.20;;;1.23;;
11211;SDS011;5663;50.864;12.096;2023-01-16T00:13:02;3.10;;;1.30;;
11211;SDS011;5663;50.864;12.096;2023-01-16T00:15:31;3.23;;;1.20;;
11211;SDS011;5663;50.864;12.096;2023-01-16T00:18:00;3.60;;;1.40;;
11211;SDS011;5663;50.864;12.096;2023-01-16T00:20:27;1.90;;;1.00;;
11211;SDS011;5663;50.864;12.096;2023-01-16T00:22:56;4.93;;;1.50;;
11211;SDS011;5663;50.864;12.096;2023-01-16T00:25:26;4.33;;;1.20;;
11211;SDS011;5663;50.864;12.096;2023-01-16T00:27:55;3.00;;;1.20;;
11211;SDS011;5663;50.864;12.096;2023-01-16T00:30:24;2.90;;;1.37;;
11211;SDS011;5663;50.864;12.096;2023-01-16T00:32:52;3.27;;;1.30;;
11211;SDS011;5663;50.864;12.096;2023-01-16T00:35:20;2.13;;;1.37;;
11211;SDS011;5663;50.864;12.096;2023-01-16T00:37:48;1.97;;;1.30;;
11211;SDS011;5663;50.864;12.096;2023-01-16T00:40:16;2.97;;;1.30;;
11211;SDS011;5663;50.864;12.096;2023-01-16T00:42:43;2.50;;;1.27;;
11211;SDS011;5663;50.864;12.096;2023-01-16T00:45:11;5.07;;;1.40;;
11211;SDS011;5663;50.864;12.096;2023-01-16T00:47:41;2.87;;;1.20;;
11211;SDS011;5663;50.864;12.096;2023-01-16T00:50:09;3.57;;;1.30;;
11211;SDS011;5663;50.864;12.096;2023-01-16T00:52:37;2.57;;;1.30;;
11211;SDS011;5663;50.864;12.096;2023-01-16T00:55:05;2.77;;;1.33;;
11211;SDS011;5663;50.864;12.096;2023-01-16T00:57:33;3.47;;;1.33;;
11211;SDS011;5663;50.864;12.096;2023-01-16T01:00:02;5.60;;;1.60;;
11211;SDS011;5663;50.864;12.096;2023-01-16T01:02:31;3.03;;;1.40;;
11211;SDS011;5663;50.864;12.096;2023-01-16T01:05:01;3.40;;;1.70;;
11211;SDS011;5663;50.864;12.096;2023-01-16T01:07:29;5.43;;;1.30;;
11211;SDS011;5663;50.864;12.096;2023-01-16T01:09:56;4.87;;;1.20;;
11211;SDS011;5663;50.864;12.096;2023-01-16T01:12:26;4.77;;;1.37;;
11211;SDS011;5663;50.864;12.096;2023-01-16T01:14:54;4.17;;;1.37;;
11211;SDS011;5663;50.864;12.096;2023-01-16T01:17:22;6.37;;;1.47;;
11211;SDS011;5663;50.864;12.096;2023-01-16T01:19:50;2.50;;;1.10;;
11211;SDS011;5663;50.864;12.096;2023-01-16T01:22:20;3.83;;;1.57;;
11211;SDS011;5663;50.864;12.096;2023-01-16T01:27:38;4.00;;;1.23;;
11211;SDS011;5663;50.864;12.096;2023-01-16T01:30:07;1.87;;;0.90;;
11211;SDS011;5663;50.864;12.096;2023-01-16T01:32:35;4.00;;;1.30;;
11211;SDS011;5663;50.864;12.096;2023-01-16T01:35:04;1.53;;;1.00;;
11211;SDS011;5663;50.864;12.096;2023-01-16T01:37:34;5.93;;;1.40;;
11211;SDS011;5663;50.864;12.096;2023-01-16T01:40:03;5.80;;;1.43;;
11211;SDS011;5663;50.864;12.096;2023-01-16T01:42:36;4.53;;;1.30;;
11211;SDS011;5663;50.864;12.096;2023-01-16T01:45:14;3.67;;;1.40;;
11211;SDS011;5663;50.864;12.096;2023-01-16T01:47:46;2.73;;;1.10;;
11211;SDS011;5663;50.864;12.096;2023-01-16T01:50:22;2.07;;;0.90;;
11211;SDS011;5663;50.864;12.096;2023-01-16T01:52:59;1.93;;;1.20;;
11211;SDS011;5663;50.864;12.096;2023-01-16T01:55:31;1.27;;;0.90;;
11211;SDS011;5663;50.864;12.096;2023-01-16T01:57:59;3.70;;;1.17;;
11211;SDS011;5663;50.864;12.096;2023-01-16T02:00:29;2.60;;;1.20;;
11211;SDS011;5663;50.864;12.096;2023-01-16T02:02:58;3.37;;;1.40;;
11211;SDS011;5663;50.864;12.096;2023-01-16T02:05:34;3.60;;;1.30;;
11211;SDS011;5663;50.864;12.096;2023-01-16T02:08:06;4.83;;;1.20;;
11211;SDS011;5663;50.864;12.096;2023-01-16T02:10:36;3.30;;;1.30;;
11211;SDS011;5663;50.864;12.096;2023-01-16T02:13:06;4.23;;;1.40;;
11211;SDS011;5663;50.864;12.096;2023-01-16T02:15:34;1.17;;;1.00;;
11211;SDS011;5663;50.864;12.096;2023-01-16T02:18:24;2.10;;;1.10;;
11211;SDS011;5663;50.864;12.096;2023-01-16T02:21:12;3.30;;;1.20;;
11211;SDS011;5663;50.864;12.096;2023-01-16T02:24:10;1.87;;;1.10;;
11211;SDS011;5663;50.864;12.096;2023-01-16T02:26:57;3.93;;;1.37;;
11211;SDS011;5663;50.864;12.096;2023-01-16T02:29:47;3.13;;;1.27;;
11211;SDS011;5663;50.864;12.096;2023-01-16T02:32:37;3.70;;;1.20;;
11211;SDS011;5663;50.864;12.096;2023-01-16T02:35:21;1.37;;;0.93;;
11211;SDS011;5663;50.864;12.096;2023-01-16T02:38:00;4.43;;;1.40;;
11211;SDS011;5663;50.864;12.096;2023-01-16T02:40:38;4.00;;;1.30;;
11211;SDS011;5663;50.864;12.096;2023-01-16T02:43:15;3.57;;;1.47;;
11211;SDS011;5663;50.864;12.096;2023-01-16T02:45:56;3.47;;;1.10;;
11211;SDS011;5663;50.864;12.096;2023-01-16T02:48:36;3.03;;;1.40;;
11211;SDS011;5663;50.864;12.096;2023-01-16T02:51:09;2.03;;;1.17;;
11211;SDS011;5663;50.864;12.096;2023-01-16T02:53:44;2.57;;;1.10;;
11211;SDS011;5663;50.864;12.096;2023-01-16T02:56:17;2.73;;;1.30;;
11211;SDS011;5663;50.864;12.096;2023-01-16T02:58:49;2.53;;;1.30;;
11211;SDS011;5663;50.864;12.096;2023-01-16T03:01:19;4.10;;;1.47;;
11211;SDS011;5663;50.864;12.096;2023-01-16T03:03:49;1.03;;;0.80;;
11211;SDS011;5663;50.864;12.096;2023-01-16T03:06:31;4.67;;;1.70;;
11211;SDS011;5663;50.864;12.096;2023-01-16T03:09:12;2.93;;;1.40;;
11211;SDS011;5663;50.864;12.096;2023-01-16T03:11:52;1.87;;;1.27;;
11211;SDS011;5663;50.864;12.096;2023-01-16T03:14:41;2.60;;;1.20;;
11211;SDS011;5663;50.864;12.096;2023-01-16T03:17:22;2.30;;;1.23;;
11211;SDS011;5663;50.864;12.096;2023-01-16T03:20:08;2.43;;;1.20;;
11211;SDS011;5663;50.864;12.096;2023-01-16T03:22:46;3.17;;;1.13;;
11211;SDS011;5663;50.864;12.096;2023-01-16T03:25:24;4.67;;;1.37;;
11211;SDS011;5663;50.864;12.096;2023-01-16T03:27:58;2.17;;;1.00;;
11211;SDS011;5663;50.864;12.096;2023-01-16T03:30:37;1.97;;;1.20;;
11211;SDS011;5663;50.864;12.096;2023-01-16T03:33:14;1.83;;;1.20;;
11211;SDS011;5663;50.864;12.096;2023-01-16T03:35:54;2.87;;;1.27;;
11211;SDS011;5663;50.864;12.096;2023-01-16T03:38:26;2.63;;;1.30;;
11211;SDS011;5663;50.864;12.096;2023-01-16T03:40:58;2.87;;;1.40;;
11211;SDS011;5663;50.864;12.096;2023-01-16T03:43:30;3.97;;;1.50;;
11211;SDS011;5663;50.864;12.096;2023-01-16T03:46:01;3.07;;;1.87;;
11211;SDS011;5663;50.864;12.096;2023-01-16T03:48:34;5.60;;;1.50;;
11211;SDS011;5663;50.864;12.096;2023-01-16T03:51:12;3.13;;;1.40;;
11211;SDS011;5663;50.864;12.096;2023-01-16T03:53:46;4.70;;;1.33;;
11211;SDS011;5663;50.864;12.096;2023-01-16T03:56:24;3.30;;;1.40;;
11211;SDS011;5663;50.864;12.096;2023-01-16T03:58:57;3.93;;;1.50;;
11211;SDS011;5663;50.864;12.096;2023-01-16T04:01:26;4.07;;;1.60;;
11211;SDS011;5663;50.864;12.096;2023-01-16T04:04:02;4.30;;;1.57;;
11211;SDS011;5663;50.864;12.096;2023-01-16T04:06:35;3.57;;;1.30;;
11211;SDS011;5663;50.864;12.096;2023-01-16T04:09:09;4.40;;;1.53;;
11211;SDS011;5663;50.864;12.096;2023-01-16T04:11:42;3.40;;;1.67;;
11211;SDS011;5663;50.864;12.096;2023-01-16T04:14:12;3.33;;;1.50;;
11211;SDS011;5663;50.864;12.096;2023-01-16T04:16:41;2.73;;;1.23;;
11211;SDS011;5663;50.864;12.096;2023-01-16T04:19:11;6.07;;;1.50;;
11211;SDS011;5663;50.864;12.096;2023-01-16T04:21:43;2.53;;;1.10;;
11211;SDS011;5663;50.864;12.096;2023-01-16T04:24:13;4.03;;;1.20;;
11211;SDS011;5663;50.864;12.096;2023-01-16T04:26:43;2.20;;;1.30;;
11211;SDS011;5663;50.864;12.096;2023-01-16T04:29:10;2.53;;;1.30;;
11211;SDS011;5663;50.864;12.096;2023-01-16T04:31:38;2.13;;;1.20;;
11211;SDS011;5663;50.864;12.096;2023-01-16T04:34:06;2.33;;;1.33;;
11211;SDS011;5663;50.864;12.096;2023-01-16T04:36:34;4.70;;;1.50;;
11211;SDS011;5663;50.864;12.096;2023-01-16T04:39:08;4.33;;;1.20;;
11211;SDS011;5663;50.864;12.096;2023-01-16T04:41:36;2.37;;;1.47;;
11211;SDS011;5663;50.864;12.096;2023-01-16T04:44:07;2.50;;;1.20;;
11211;SDS011;5663;50.864;12.096;2023-01-16T04:46:36;5.10;;;1.23;;
11211;SDS011;5663;50.864;12.096;2023-01-16T04:49:04;5.03;;;1.10;;
11211;SDS011;5663;50.864;12.096;2023-01-16T04:51:33;4.37;;;1.60;;
11211;SDS011;5663;50.864;12.096;2023-01-16T04:54:02;2.30;;;1.10;;
11211;SDS011;5663;50.864;12.096;2023-01-16T04:56:32;2.30;;;1.30;;
11211;SDS011;5663;50.864;12.096;2023-01-16T04:59:02;5.23;;;1.30;;
11211;SDS011;5663;50.864;12.096;2023-01-16T05:01:29;4.93;;;1.40;;
11211;SDS011;5663;50.864;12.096;2023-01-16T05:04:01;3.13;;;1.00;;
11211;SDS011;5663;50.864;12.096;2023-01-16T05:06:29;3.27;;;0.90;;
11211;SDS011;5663;50.864;12.096;2023-01-16T05:08:57;3.67;;;1.20;;
11211;SDS011;5663;50.864;12.096;2023-01-16T05:11:26;3.30;;;1.07;;
11211;SDS011;5663;50.864;12.096;2023-01-16T05:13:54;4.77;;;1.67;;
11211;SDS011;5663;50.864;12.096;2023-01-16T05:16:22;6.10;;;1.47;;
11211;SDS011;5663;50.864;12.096;2023-01-16T05:18:50;3.60;;;1.40;;
11211;SDS011;5663;50.864;12.096;2023-01-16T05:21:18;3.37;;;1.30;;
11211;SDS011;5663;50.864;12.096;2023-01-16T05:23:45;5.03;;;1.40;;
11211;SDS011;5663;50.864;12.096;2023-01-16T05:26:13;2.37;;;1.53;;
11211;SDS011;5663;50.864;12.096;2023-01-16T05:28:42;2.70;;;1.43;;
11211;SDS011;5663;50.864;12.096;2023-01-16T05:31:10;3.00;;;1.53;;
11211;SDS011;5663;50.864;12.096;2023-01-16T05:33:38;2.73;;;1.70;;
11211;SDS011;5663;50.864;12.096;2023-01-16T05:36:07;4.90;;;1.60;;
11211;SDS011;5663;50.864;12.096;2023-01-16T05:38:35;5.57;;;1.97;;
11211;SDS011;5663;50.864;12.096;2023-01-16T05:41:03;3.30;;;1.73;;
11211;SDS011;5663;50.864;12.096;2023-01-16T05:43:31;3.83;;;1.60;;
11211;SDS011;5663;50.864;12.096;2023-01-16T05:46:00;4.33;;;1.70;;
11211;SDS011;5663;50.864;12.096;2023-01-16T05:48:28;3.53;;;2.17;;
11211;SDS011;5663;50.864;12.096;2023-01-16T05:50:57;4.07;;;1.90;;
11211;SDS011;5663;50.864;12.096;2023-01-16T05:53:27;4.43;;;1.60;;
11211;SDS011;5663;50.864;12.096;2023-01-16T05:55:56;6.10;;;1.93;;
11211;SDS011;5663;50.864;12.096;2023-01-16T05:58:26;3.80;;;1.67;;
11211;SDS011;5663;50.864;12.096;2023-01-16T06:00:54;4.33;;;1.67;;
11211;SDS011;5663;50.864;12.096;2023-01-16T06:03:23;5.03;;;1.67;;
11211;SDS011;5663;50.864;12.096;2023-01-16T06:05:51;3.27;;;1.70;;
11211;SDS011;5663;50.864;12.096;2023-01-16T06:08:18;2.93;;;1.53;;
11211;SDS011;5663;50.864;12.096;2023-01-16T06:10:46;3.00;;;1.40;;
11211;SDS011;5663;50.864;12.096;2023-01-16T06:13:13;3.47;;;1.77;;
11211;SDS011;5663;50.864;12.096;2023-01-16T06:15:42;3.90;;;1.63;;
11211;SDS011;5663;50.864;12.096;2023-01-16T06:18:09;4.90;;;1.57;;
11211;SDS011;5663;50.864;12.096;2023-01-16T06:20:41;4.90;;;2.10;;
11211;SDS011;5663;50.864;12.096;2023-01-16T06:23:09;3.73;;;1.70;;
11211;SDS011;5663;50.864;12.096;2023-01-16T06:25:37;5.07;;;1.80;;
11211;SDS011;5663;50.864;12.096;2023-01-16T06:28:04;5.40;;;2.20;;
11211;SDS011;5663;50.864;12.096;2023-01-16T06:30:32;5.87;;;1.90;;
11211;SDS011;5663;50.864;12.096;2023-01-16T06:33:00;3.50;;;1.90;;
11211;SDS011;5663;50.864;12.096;2023-01-16T06:35:27;5.20;;;2.17;;
11211;SDS011;5663;50.864;12.096;2023-01-16T06:37:56;7.30;;;2.70;;
11211;SDS011;5663;50.864;12.096;2023-01-16T06:40:24;8.87;;;2.87;;
11211;SDS011;5663;50.864;12.096;2023-01-16T06:42:52;5.27;;;2.27;;
11211;SDS011;5663;50.864;12.096;2023-01-16T06:45:20;3.27;;;1.80;;
11211;SDS011;5663;50.864;12.096;2023-01-16T06:47:50;5.20;;;2.00;;
11211;SDS011;5663;50.864;12.096;2023-01-16T06:50:19;4.03;;;1.87;;
11211;SDS011;5663;50.864;12.096;2023-01-16T06:52:47;5.97;;;1.97;;
11211;SDS011;5663;50.864;12.096;2023-01-16T06:55:17;3.47;;;1.70;;
11211;SDS011;5663;50.864;12.096;2023-01-16T06:57:45;2.30;;;1.50;;
11211;SDS011;5663;50.864;12.096;2023-01-16T07:00:14;4.33;;;1.70;;
11211;SDS011;5663;50.864;12.096;2023-01-16T07:02:42;3.40;;;1.60;;
11211;SDS011;5663;50.864;12.096;2023-01-16T07:05:10;4.40;;;1.70;;
11211;SDS011;5663;50.864;12.096;2023-01-16T07:07:39;4.90;;;1.70;;
11211;SDS011;5663;50.864;12.096;2023-01-16T07:10:07;2.73;;;1.67;;
11211;SDS011;5663;50.864;12.096;2023-01-16T07:12:37;3.97;;;1.53;;
11211;SDS011;5663;50.864;12.096;2023-01-16T07:15:06;3.17;;;1.50;;
11211;SDS011;5663;50.864;12.096;2023-01-16T07:17:51;2.40;;;1.70;;
11211;SDS011;5663;50.864;12.096;2023-01-16T07:20:41;4.77;;;2.00;;
11211;SDS011;5663;50.864;12.096;2023-01-16T07:23:32;3.80;;;1.70;;
11211;SDS011;5663;50.864;12.096;2023-01-16T07:26:03;3.03;;;1.70;;
11211;SDS011;5663;50.864;12.096;2023-01-16T07:28:37;7.00;;;2.10;;
11211;SDS011;5663;50.864;12.096;2023-01-16T07:31:09;5.30;;;2.00;;
11211;SDS011;5663;50.864;12.096;2023-01-16T07:33:37;4.30;;;2.17;;
11211;SDS011;5663;50.864;12.096;2023-01-16T07:36:06;7.90;;;2.40;;
11211;SDS011;5663;50.864;12.096;2023-01-16T07:38:34;4.20;;;2.10;;
11211;SDS011;5663;50.864;12.096;2023-01-16T07:41:02;4.87;;;2.17;;
11211;SDS011;5663;50.864;12.096;2023-01-16T07:43:30;5.97;;;2.13;;
11211;SDS011;5663;50.864;12.096;2023-01-16T07:45:59;3.20;;;1.50;;
11211;SDS011;5663;50.864;12.096;2023-01-16T07:48:27;4.30;;;1.60;;
11211;SDS011;5663;50.864;12.096;2023-01-16T07:50:56;2.30;;;1.33;;
11211;SDS011;5663;50.864;12.096;2023-01-16T07:53:26;3.57;;;1.47;;
11211;SDS011;5663;50.864;12.096;2023-01-16T07:55:56;2.40;;;1.40;;
11211;SDS011;5663;50.864;12.096;2023-01-16T07:58:25;4.50;;;1.83;;
11211;SDS011;5663;50.864;12.096;2023-01-16T08:00:53;3.50;;;1.30;;
11211;SDS011;5663;50.864;12.096;2023-01-16T08:03:24;3.43;;;1.53;;
11211;SDS011;5663;50.864;12.096;2023-01-16T08:05:56;3.00;;;1.30;;
11211;SDS011;5663;50.864;12.096;2023-01-16T08:08:24;2.83;;;1.70;;
11211;SDS011;5663;50.864;12.096;2023-01-16T08:10:53;5.37;;;1.43;;
11211;SDS011;5663;50.864;12.096;2023-01-16T08:13:21;4.60;;;1.47;;
11211;SDS011;5663;50.864;12.096;2023-01-16T08:15:49;1.90;;;1.20;;
11211;SDS011;5663;50.864;12.096;2023-01-16T08:18:17;3.23;;;1.50;;
11211;SDS011;5663;50.864;12.096;2023-01-16T08:20:46;4.17;;;1.63;;
11211;SDS011;5663;50.864;12.096;2023-01-16T08:23:14;5.20;;;1.73;;
11211;SDS011;5663;50.864;12.096;2023-01-16T08:25:42;2.03;;;1.43;;
11211;SDS011;5663;50.864;12.096;2023-01-16T08:28:09;2.13;;;1.60;;
11211;SDS011;5663;50.864;12.096;2023-01-16T08:30:38;2.50;;;1.90;;
11211;SDS011;5663;50.864;12.096;2023-01-16T08:33:05;4.27;;;1.53;;
11211;SDS011;5663;50.864;12.096;2023-01-16T08:35:33;1.77;;;1.30;;
11211;SDS011;5663;50.864;12.096;2023-01-16T08:38:02;2.43;;;1.30;;
11211;SDS011;5663;50.864;12.096;2023-01-16T08:40:30;4.17;;;1.50;;
11211;SDS011;5663;50.864;12.096;2023-01-16T08:42:57;1.67;;;1.30;;
11211;SDS011;5663;50.864;12.096;2023-01-16T08:45:42;2.77;;;1.73;;
11211;SDS011;5663;50.864;12.096;2023-01-16T08:48:28;2.13;;;1.30;;
11211;SDS011;5663;50.864;12.096;2023-01-16T08:51:13;3.13;;;1.50;;
11211;SDS011;5663;50.864;12.096;2023-01-16T08:53:51;2.67;;;1.47;;
11211;SDS011;5663;50.864;12.096;2023-01-16T08:56:19;3.43;;;1.33;;
11211;SDS011;5663;50.864;12.096;2023-01-16T08:58:47;5.57;;;1.60;;
11211;SDS011;5663;50.864;12.096;2023-01-16T09:01:15;3.30;;;1.40;;
11211;SDS011;5663;50.864;12.096;2023-01-16T09:03:44;1.83;;;1.20;;
11211;SDS011;5663;50.864;12.096;2023-01-16T09:06:12;1.90;;;1.30;;
11211;SDS011;5663;50.864;12.096;2023-01-16T09:08:40;2.83;;;1.40;;
11211;SDS011;5663;50.864;12.096;2023-01-16T09:11:09;4.67;;;1.50;;
11211;SDS011;5663;50.864;12.096;2023-01-16T09:13:54;3.00;;;1.60;;
11211;SDS011;5663;50.864;12.096;2023-01-16T09:16:27;3.67;;;1.60;;
11211;SDS011;5663;50.864;12.096;2023-01-16T09:18:55;3.93;;;1.93;;
11211;SDS011;5663;50.864;12.096;2023-01-16T09:21:23;2.07;;;1.50;;
11211;SDS011;5663;50.864;12.096;2023-01-16T09:23:52;2.30;;;1.60;;
11211;SDS011;5663;50.864;12.096;2023-01-16T09:26:22;3.20;;;1.50;;
11211;SDS011;5663;50.864;12.096;2023-01-16T09:28:49;2.57;;;1.40;;
11211;SDS011;5663;50.864;12.096;2023-01-16T09:31:17;5.17;;;1.70;;
11211;SDS011;5663;50.864;12.096;2023-01-16T09:33:45;2.00;;;1.23;;
11211;SDS011;5663;50.864;12.096;2023-01-16T09:36:15;3.77;;;1.77;;
11211;SDS011;5663;50.864;12.096;2023-01-16T09:38:42;5.97;;;1.50;;
11211;SDS011;5663;50.864;12.096;2023-01-16T09:41:11;2.23;;;1.37;;
11211;SDS011;5663;50.864;12.096;2023-01-16T09:44:06;3.07;;;1.60;;
11211;SDS011;5663;50.864;12.096;2023-01-16T09:46:35;1.93;;;1.60;;
11211;SDS011;5663;50.864;12.096;2023-01-16T09:49:17;3.17;;;1.50;;
11211;SDS011;5663;50.864;12.096;2023-01-16T09:51:50;2.37;;;1.43;;
11211;SDS011;5663;50.864;12.096;2023-01-16T09:54:40;1.40;;;1.20;;
11211;SDS011;5663;50.864;12.096;2023-01-16T09:57:44;4.17;;;1.50;;
11211;SDS011;5663;50.864;12.096;2023-01-16T10:00:35;1.63;;;1.27;;
11211;SDS011;5663;50.864;12.096;2023-01-16T10:03:06;5.50;;;1.47;;
11211;SDS011;5663;50.864;12.096;2023-01-16T10:05:38;3.47;;;1.40;;
11211;SDS011;5663;50.864;12.096;2023-01-16T10:08:14;2.53;;;1.50;;
11211;SDS011;5663;50.864;12.096;2023-01-16T10:10:49;2.03;;;1.30;;
11211;SDS011;5663;50.864;12.096;2023-01-16T10:13:31;4.20;;;1.40;;
11211;SDS011;5663;50.864;12.096;2023-01-16T10:16:24;3.03;;;1.40;;
11211;SDS011;5663;50.864;12.096;2023-01-16T10:19:03;5.23;;;1.50;;
11211;SDS011;5663;50.864;12.096;2023-01-16T10:21:42;8.33;;;1.70;;
11211;SDS011;5663;50.864;12.096;2023-01-16T10:24:19;1.77;;;1.23;;
11211;SDS011;5663;50.864;12.096;2023-01-16T10:26:57;2.00;;;1.57;;
11211;SDS011;5663;50.864;12.096;2023-01-16T10:29:27;1.83;;;1.10;;
11211;SDS011;5663;50.864;12.096;2023-01-16T10:32:03;4.57;;;1.30;;
11211;SDS011;5663;50.864;12.096;2023-01-16T10:34:39;3.03;;;1.30;;
11211;SDS011;5663;50.864;12.096;2023-01-16T10:37:10;3.73;;;1.60;;
11211;SDS011;5663;50.864;12.096;2023-01-16T10:39:40;2.07;;;1.30;;
11211;SDS011;5663;50.864;12.096;2023-01-16T10:42:11;5.70;;;1.47;;
11211;SDS011;5663;50.864;12.096;2023-01-16T10:45:11;3.67;;;1.30;;
11211;SDS011;5663;50.864;12.096;2023-01-16T10:48:02;4.87;;;1.30;;
11211;SDS011;5663;50.864;12.096;2023-01-16T10:50:48;2.37;;;1.10;;
11211;SDS011;5663;50.864;12.096;2023-01-16T10:53:16;2.60;;;1.33;;
11211;SDS011;5663;50.864;12.096;2023-01-16T10:55:44;4.17;;;1.43;;
11211;SDS011;5663;50.864;12.096;2023-01-16T10:58:24;3.00;;;1.60;;
11211;SDS011;5663;50.864;12.096;2023-01-16T11:00:56;2.93;;;1.27;;
11211;SDS011;5663;50.864;12.096;2023-01-16T11:03:33;3.57;;;1.30;;
11211;SDS011;5663;50.864;12.096;2023-01-16T11:06:06;4.10;;;1.37;;
11211;SDS011;5663;50.864;12.096;2023-01-16T11:08:40;3.47;;;1.10;;
11211;SDS011;5663;50.864;12.096;2023-01-16T11:11:09;2.00;;;1.27;;
11211;SDS011;5663;50.864;12.096;2023-01-16T11:13:52;4.30;;;1.53;;
11211;SDS011;5663;50.864;12.096;2023-01-16T11:16:37;3.13;;;1.23;;
11211;SDS011;5663;50.864;12.096;2023-01-16T11:19:24;2.97;;;1.60;;
11211;SDS011;5663;50.864;12.096;2023-01-16T11:21:56;3.20;;;1.30;;
11211;SDS011;5663;50.864;12.096;2023-01-16T11:24:30;3.53;;;1.10;;
11211;SDS011;5663;50.864;12.096;2023-01-16T11:27:00;3.23;;;1.50;;
11211;SDS011;5663;50.864;12.096;2023-01-16T11:29:34;4.90;;;2.27;;
11211;SDS011;5663;50.864;12.096;2023-01-16T11:32:05;2.10;;;1.40;;
11211;SDS011;5663;50.864;12.096;2023-01-16T11:34:37;2.00;;;1.00;;
11211;SDS011;5663;50.864;12.096;2023-01-16T11:37:07;2.03;;;1.30;;
11211;SDS011;5663;50.864;12.096;2023-01-16T11:39:37;2.63;;;1.27;;
11211;SDS011;5663;50.864;12.096;2023-01-16T11:42:06;3.10;;;1.20;;
11211;SDS011;5663;50.864;12.096;2023-01-16T11:44:59;1.77;;;1.17;;
11211;SDS011;5663;50.864;12.096;2023-01-16T11:47:54;2.77;;;1.17;;
11211;SDS011;5663;50.864;12.096;2023-01-16T11:50:28;2.30;;;1.10;;
11211;SDS011;5663;50.864;12.096;2023-01-16T11:52:58;3.13;;;1.30;;
11211;SDS011;5663;50.864;12.096;2023-01-16T11:55:29;1.90;;;0.93;;
11211;SDS011;5663;50.864;12.096;2023-01-16T11:58:06;3.80;;;0.93;;
11211;SDS011;5663;50.864;12.096;2023-01-16T12:00:45;2.10;;;1.10;;
11211;SDS011;5663;50.864;12.096;2023-01-16T12:03:29;4.63;;;1.10;;
11211;SDS011;5663;50.864;12.096;2023-01-16T12:06:14;1.67;;;0.87;;
11211;SDS011;5663;50.864;12.096;2023-01-16T12:09:02;1.00;;;0.80;;
11211;SDS011;5663;50.864;12.096;2023-01-16T12:11:55;1.97;;;1.10;;
11211;SDS011;5663;50.864;12.096;2023-01-16T12:14:52;1.77;;;0.90;;
11211;SDS011;5663;50.864;12.096;2023-01-16T12:17:24;3.37;;;1.03;;
11211;SDS011;5663;50.864;12.096;2023-01-16T12:20:04;2.23;;;1.00;;
11211;SDS011;5663;50.864;12.096;2023-01-16T12:25:37;1.97;;;1.13;;
11211;SDS011;5663;50.864;12.096;2023-01-16T12:28:16;1.63;;;1.00;;
11211;SDS011;5663;50.864;12.096;2023-01-16T12:31:05;1.83;;;1.30;;
11211;SDS011;5663;50.864;12.096;2023-01-16T12:34:04;2.10;;;0.90;;
11211;SDS011;5663;50.864;12.096;2023-01-16T12:36:54;6.53;;;0.90;;
11211;SDS011;5663;50.864;12.096;2023-01-16T12:39:40;2.10;;;1.00;;
11211;SDS011;5663;50.864;12.096;2023-01-16T12:42:17;2.83;;;1.00;;
11211;SDS011;5663;50.864;12.096;2023-01-16T12:45:15;1.23;;;1.10;;
11211;SDS011;5663;50.864;12.096;2023-01-16T12:47:57;2.43;;;0.90;;
11211;SDS011;5663;50.864;12.096;2023-01-16T12:50:42;1.50;;;0.80;;
11211;SDS011;5663;50.864;12.096;2023-01-16T12:53:32;4.07;;;1.40;;
11211;SDS011;5663;50.864;12.096;2023-01-16T12:56:21;1.37;;;0.80;;
11211;SDS011;5663;50.864;12.096;2023-01-16T12:58:56;3.07;;;1.20;;
11211;SDS011;5663;50.864;12.096;2023-01-16T13:01:30;1.60;;;1.00;;
11211;SDS011;5663;50.864;12.096;2023-01-16T13:04:07;1.90;;;1.10;;
11211;SDS011;5663;50.864;12.096;2023-01-16T13:06:42;0.87;;;0.83;;
11211;SDS011;5663;50.864;12.096;2023-01-16T13:09:15;3.27;;;0.93;;
11211;SDS011;5663;50.864;12.096;2023-01-16T13:11:57;1.50;;;0.90;;
11211;SDS011;5663;50.864;12.096;2023-01-16T13:14:54;2.37;;;1.10;;
11211;SDS011;5663;50.864;12.096;2023-01-16T13:17:27;1.80;;;1.07;;
11211;SDS011;5663;50.864;12.096;2023-01-16T13:20:09;2.27;;;0.83;;
11211;SDS011;5663;50.864;12.096;2023-01-16T13:22:41;3.83;;;1.20;;
11211;SDS011;5663;50.864;12.096;2023-01-16T13:25:15;12.73;;;1.20;;
11211;SDS011;5663;50.864;12.096;2023-01-16T13:27:53;1.93;;;1.17;;
11211;SDS011;5663;50.864;12.096;2023-01-16T13:30:26;1.50;;;1.20;;
11211;SDS011;5663;50.864;12.096;2023-01-16T13:32:54;2.10;;;1.10;;
11211;SDS011;5663;50.864;12.096;2023-01-16T13:35:27;5.13;;;1.00;;
11211;SDS011;5663;50.864;12.096;2023-01-16T13:41:13;4.67;;;1.27;;
11211;SDS011;5663;50.864;12.096;2023-01-16T13:43:47;4.13;;;1.47;;
11211;SDS011;5663;50.864;12.096;2023-01-16T13:46:37;4.27;;;1.30;;
11211;SDS011;5663;50.864;12.096;2023-01-16T13:49:06;5.10;;;1.10;;
11211;SDS011;5663;50.864;12.096;2023-01-16T13:51:42;2.67;;;1.03;;
11211;SDS011;5663;50.864;12.096;2023-01-16T13:54:12;3.77;;;1.10;;
11211;SDS011;5663;50.864;12.096;2023-01-16T13:56:43;1.57;;;1.10;;
11211;SDS011;5663;50.864;12.096;2023-01-16T14:02:24;2.53;;;0.90;;
11211;SDS011;5663;50.864;12.096;2023-01-16T14:07:46;3.17;;;1.20;;
11211;SDS011;5663;50.864;12.096;2023-01-16T14:10:38;1.97;;;1.40;;
11211;SDS011;5663;50.864;12.096;2023-01-16T14:13:13;2.23;;;1.23;;
11211;SDS011;5663;50.864;12.096;2023-01-16T14:15:50;3.17;;;1.33;;
11211;SDS011;5663;50.864;12.096;2023-01-16T14:18:39;1.47;;;1.10;;
11211;SDS011;5663;50.864;12.096;2023-01-16T14:21:17;4.27;;;1.20;;
11211;SDS011;5663;50.864;12.096;2023-01-16T14:23:47;3.17;;;1.40;;
11211;SDS011;5663;50.864;12.096;2023-01-16T14:26:33;2.53;;;1.20;;
11211;SDS011;5663;50.864;12.096;2023-01-16T14:29:12;3.43;;;1.57;;
11211;SDS011;5663;50.864;12.096;2023-01-16T14:31:49;1.63;;;1.20;;
11211;SDS011;5663;50.864;12.096;2023-01-16T14:34:20;6.43;;;2.00;;
11211;SDS011;5663;50.864;12.096;2023-01-16T14:36:54;2.53;;;1.13;;
11211;SDS011;5663;50.864;12.096;2023-01-16T14:39:29;6.07;;;1.67;;
11211;SDS011;5663;50.864;12.096;2023-01-16T14:42:01;3.23;;;1.40;;
11211;SDS011;5663;50.864;12.096;2023-01-16T14:45:15;1.50;;;1.20;;
11211;SDS011;5663;50.864;12.096;2023-01-16T14:48:11;2.53;;;1.17;;
11211;SDS011;5663;50.864;12.096;2023-01-16T14:51:00;2.10;;;1.10;;
11211;SDS011;5663;50.864;12.096;2023-01-16T14:53:56;1.60;;;1.20;;
11211;SDS011;5663;50.864;12.096;2023-01-16T14:56:44;3.03;;;1.30;;
11211;SDS011;5663;50.864;12.096;2023-01-16T14:59:18;4.60;;;1.70;;
11211;SDS011;5663;50.864;12.096;2023-01-16T15:02:14;3.03;;;1.33;;
11211;SDS011;5663;50.864;12.096;2023-01-16T15:05:11;2.80;;;1.30;;
11211;SDS011;5663;50.864;12.096;2023-01-16T15:07:53;4.20;;;1.70;;
11211;SDS011;5663;50.864;12.096;2023-01-16T15:10:39;3.23;;;1.30;;
11211;SDS011;5663;50.864;12.096;2023-01-16T15:13:12;3.40;;;1.53;;
11211;SDS011;5663;50.864;12.096;2023-01-16T15:15:42;3.47;;;1.70;;
11211;SDS011;5663;50.864;12.096;2023-01-16T15:18:17;2.77;;;1.60;;
11211;SDS011;5663;50.864;12.096;2023-01-16T15:21:07;5.60;;;1.53;;
11211;SDS011;5663;50.864;12.096;2023-01-16T15:23:57;3.70;;;1.80;;
11211;SDS011;5663;50.864;12.096;2023-01-16T15:26:26;3.13;;;1.33;;
11211;SDS011;5663;50.864;12.096;2023-01-16T15:29:11;3.40;;;1.60;;
11211;SDS011;5663;50.864;12.096;2023-01-16T15:31:57;4.17;;;1.70;;
11211;SDS011;5663;50.864;12.096;2023-01-16T15:34:31;2.27;;;1.37;;
11211;SDS011;5663;50.864;12.096;2023-01-16T15:37:00;2.23;;;1.50;;
11211;SDS011;5663;50.864;12.096;2023-01-16T15:39:30;3.40;;;1.63;;
11211;SDS011;5663;50.864;12.096;2023-01-16T15:42:09;5.77;;;1.60;;
11211;SDS011;5663;50.864;12.096;2023-01-16T15:44:57;3.40;;;1.73;;